V.a. San Pedro — WAW957 — position and weather

sailwx.info

Track history (hours):
 
Tides and Currents Weather Stations Pressure Air Temp Water Temp Dewpoint Dewpoint Depression Visibility Wind Speed Wind Dir Waves Ship Positions

V.a. San Pedro

Last reported at 2018-Feb-19 01:05 UTC. Time now 2018-Feb-19 08:17 UTC.
Position N 33°43' W 118°17'.

Length 10 m.

Type: Towing. MMSI: 338181878.

Date/timePositionNaut miles runAvg speedWind from/ knotsBaromVisibWave heightAir tempDewpointWater temp
2018-Feb-19 01:05N 33°43' W 118°17'0 0.0
2018-Feb-18 22:32N 33°43' W 118°17'0 0.0
2018-Feb-18 22:14N 33°43' W 118°17'0 0.0
2018-Feb-18 21:59N 33°43' W 118°17'0 0.0
2018-Feb-18 21:26N 33°43' W 118°17'0 0.0
2018-Feb-18 20:26N 33°43' W 118°17'1 2.3
2018-Feb-18 20:00N 33°43' W 118°16'4 6.9
2018-Feb-18 19:30N 33°40' W 118°14'4 8.0
2018-Feb-18 19:00N 33°43' W 118°17'1 0.9
2018-Feb-18 18:25N 33°43' W 118°17'0 0.0
2018-Feb-18 17:49N 33°43' W 118°17'0 0.0
2018-Feb-18 17:22N 33°43' W 118°17'0 0.0
2018-Feb-18 16:58N 33°43' W 118°17'0 0.0
2018-Feb-18 16:19N 33°43' W 118°17'0 0.0
2018-Feb-18 15:55N 33°43' W 118°17'0 0.0
2018-Feb-18 15:19N 33°43' W 118°17'0 0.0
2018-Feb-18 14:49N 33°43' W 118°17'2 0.2
2018-Feb-18 03:42N 33°43' W 118°14'2 0.5
2018-Feb-17 22:49N 33°43' W 118°17'0 0.0
2018-Feb-17 22:19N 33°43' W 118°17'0 0.0
2018-Feb-17 21:43N 33°43' W 118°17'0 0.0
2018-Feb-17 21:25N 33°43' W 118°17'0 0.0
2018-Feb-17 20:07N 33°43' W 118°17'0 0.0
2018-Feb-17 19:55N 33°43' W 118°17'0 0.0
2018-Feb-17 19:19N 33°43' W 118°17'0 0.0
2018-Feb-17 18:55N 33°43' W 118°17'0 0.0
2018-Feb-17 18:25N 33°43' W 118°17'0 0.0
2018-Feb-17 17:55N 33°43' W 118°17'0 0.0
2018-Feb-17 17:19N 33°43' W 118°17'0 0.0
2018-Feb-17 16:55N 33°43' W 118°17'0 0.0
2018-Feb-17 16:25N 33°43' W 118°17'0 0.0
2018-Feb-17 15:58N 33°43' W 118°17'0 0.0
2018-Feb-16 20:01N 33°43' W 118°17'0 0.0
2018-Feb-16 19:56N 33°43' W 118°17'0 1.1
2018-Feb-16 19:30N 33°44' W 118°16'2 3.2
2018-Feb-16 19:00N 33°42' W 118°16'0 0.2
2018-Feb-16 16:45N 33°42' W 118°16'1 3.3
2018-Feb-16 16:24N 33°43' W 118°17'0 0.6
2018-Feb-16 15:57N 33°43' W 118°17'0 0.0
2018-Feb-16 15:27N 33°43' W 118°17'0 0.0
2018-Feb-16 14:51N 33°43' W 118°17'0 0.0
2018-Feb-16 01:42N 33°43' W 118°17'0 0.0
2018-Feb-16 01:12N 33°43' W 118°17'0 0.0
2018-Feb-15 22:12N 33°43' W 118°17'0 0.0
2018-Feb-15 20:12N 33°43' W 118°17'0 0.0
2018-Feb-15 19:50N 33°43' W 118°17'1 3.2
2018-Feb-15 19:30N 33°44' W 118°16'0 0.9
2018-Feb-15 19:00N 33°44' W 118°16'1 1.9
2018-Feb-15 18:30N 33°43' W 118°16'0 0.0
2018-Feb-15 17:52N 33°43' W 118°16'0 0.9
2018-Feb-15 17:28N 33°43' W 118°16'1 1.5
2018-Feb-15 17:00N 33°44' W 118°16'1 1.0
2018-Feb-15 16:29N 33°44' W 118°16'1 1.5
2018-Feb-15 15:50N 33°43' W 118°17'0 0.0
2018-Feb-15 15:17N 33°43' W 118°17'0 0.0
2018-Feb-15 14:50N 33°43' W 118°17'1 0.1
2018-Feb-15 04:03N 33°44' W 118°16'1 5.1
2018-Feb-15 03:56N 33°44' W 118°15'0 0.1
2018-Feb-15 03:30N 33°44' W 118°15'2 0.8
2018-Feb-15 01:39N 33°43' W 118°17'0 0.0
2018-Feb-15 01:09N 33°43' W 118°17'0 0.0
2018-Feb-15 00:39N 33°43' W 118°17'0 0.0
2018-Feb-15 00:21N 33°43' W 118°17'0 0.0
2018-Feb-14 23:51N 33°43' W 118°17'0 0.0
2018-Feb-14 23:15N 33°43' W 118°17'0 0.0
2018-Feb-14 22:57N 33°43' W 118°17'0 0.0
2018-Feb-14 22:09N 33°43' W 118°17'0 0.0
2018-Feb-14 20:03N 33°43' W 118°17'0 0.0
2018-Feb-14 19:57N 33°43' W 118°17'0 0.0
2018-Feb-14 19:15N 33°43' W 118°17'0 0.0
2018-Feb-14 18:57N 33°43' W 118°17'0 0.0
2018-Feb-14 18:27N 33°43' W 118°17'0 0.0
2018-Feb-14 17:51N 33°43' W 118°17'0 0.0
2018-Feb-14 17:27N 33°43' W 118°17'0 0.0
2018-Feb-14 16:57N 33°43' W 118°17'0 0.0
2018-Feb-14 16:03N 33°43' W 118°17'0 0.0
2018-Feb-14 15:57N 33°43' W 118°17'0 0.0
2018-Feb-14 15:27N 33°43' W 118°17'0 0.0
2018-Feb-14 14:57N 33°43' W 118°17'0 0.0
2018-Feb-14 01:45N 33°43' W 118°17'0 1.7
2018-Feb-14 01:29N 33°43' W 118°17'0 0.0
2018-Feb-14 01:00N 33°43' W 118°17'0 0.0
2018-Feb-14 00:28N 33°43' W 118°17'0 0.0
2018-Feb-13 23:55N 33°43' W 118°17'0 0.0
2018-Feb-13 23:14N 33°43' W 118°17'1 3.2
2018-Feb-13 23:00N 33°44' W 118°16'2 5.0
2018-Feb-13 22:30N 33°46' W 118°15'1 2.7
2018-Feb-13 22:00N 33°45' W 118°16'2 0.8
2018-Feb-13 19:42N 33°43' W 118°17'0 0.0
2018-Feb-13 19:30N 33°43' W 118°17'0 0.0
2018-Feb-13 17:42N 33°43' W 118°17'0 0.0
2018-Feb-13 17:24N 33°43' W 118°17'0 0.0
2018-Feb-13 16:32N 33°43' W 118°17'0 0.0
2018-Feb-13 16:30N 33°43' W 118°17'0 0.2
2018-Feb-13 15:44N 33°43' W 118°17'0 1.2
2018-Feb-13 15:22N 33°43' W 118°17'0 1.0
2018-Feb-13 14:58N 33°43' W 118°17'0 0.0
2018-Feb-13 01:28N 33°43' W 118°17'1 1.4
2018-Feb-13 01:00N 33°43' W 118°16'1 1.3
2018-Feb-13 00:30N 33°44' W 118°16'0 0.1
2018-Feb-12 18:07N 33°43' W 118°17'0 0.0
2018-Feb-12 17:19N 33°43' W 118°17'0 0.0
2018-Feb-12 16:49N 33°43' W 118°17'0 0.0
2018-Feb-12 16:28N 33°43' W 118°17'0 0.0
2018-Feb-12 15:07N 33°43' W 118°17'0 0.0
2018-Feb-12 14:55N 33°43' W 118°17'0 0.0
2018-Feb-12 00:58N 33°43' W 118°17'0 1.0
2018-Feb-12 00:30N 33°43' W 118°16'0 0.8
2018-Feb-11 23:59N 33°43' W 118°17'0 0.0
2018-Feb-11 23:29N 33°43' W 118°17'1 1.6
2018-Feb-11 22:57N 33°43' W 118°16'1 0.2
2018-Feb-11 17:20N 33°42' W 118°17'1 4.0
2018-Feb-11 17:01N 33°43' W 118°15'1 2.1
2018-Feb-11 16:22N 33°43' W 118°17'0 0.0
2018-Feb-11 15:58N 33°43' W 118°17'0 0.0
2018-Feb-11 15:28N 33°43' W 118°17'1 0.1
2018-Feb-10 23:28N 33°42' W 118°17'2 4.0
2018-Feb-10 23:00N 33°44' W 118°16'2 4.6
2018-Feb-10 22:29N 33°46' W 118°15'0 0.2
2018-Feb-10 22:00N 33°46' W 118°15'2 3.0
2018-Feb-10 21:30N 33°45' W 118°16'1 1.1
2018-Feb-10 20:10N 33°43' W 118°17'0 0.0
2018-Feb-10 19:39N 33°43' W 118°17'1 4.8
2018-Feb-10 19:31N 33°43' W 118°16'1 2.2
2018-Feb-10 19:00N 33°44' W 118°15'0 0.1
2018-Feb-10 18:30N 33°44' W 118°15'1 2.1
2018-Feb-10 18:00N 33°43' W 118°16'1 1.2
2018-Feb-10 17:20N 33°43' W 118°17'0 0.5
2018-Feb-10 17:00N 33°43' W 118°17'3 5.1
2018-Feb-10 16:30N 33°46' W 118°16'0 0.7
2018-Feb-10 16:00N 33°45' W 118°16'1 2.8
2018-Feb-10 15:30N 33°44' W 118°17'1 0.0
2018-Feb-10 01:38N 33°43' W 118°17'0 0.0
2018-Feb-10 00:32N 33°43' W 118°17'0 0.0
2018-Feb-10 00:20N 33°43' W 118°17'0 0.0
2018-Feb-09 23:50N 33°43' W 118°17'0 0.0
2018-Feb-09 23:26N 33°43' W 118°17'0 0.0
2018-Feb-09 22:56N 33°43' W 118°17'0 0.0
2018-Feb-09 22:44N 33°43' W 118°17'  
Track history (hours):
 
Tides and Currents Weather Stations Pressure Air Temp Water Temp Dewpoint Dewpoint Depression Visibility Wind Speed Wind Dir Waves Ship Positions

V.a. San Pedro

Last reported at 2018-Feb-19 01:05 UTC. Time now 2018-Feb-19 08:17 UTC.
Position N 33°43' W 118°17'.

Length 10 m.

Type: Towing. MMSI: 338181878.

Date/timePositionNaut miles runAvg speedWind from/ knotsBaromVisibWave heightAir tempDewpointWater temp
2018-Feb-19 01:05N 33°43' W 118°17'0 0.0
2018-Feb-18 22:32N 33°43' W 118°17'0 0.0
2018-Feb-18 22:14N 33°43' W 118°17'0 0.0
2018-Feb-18 21:59N 33°43' W 118°17'0 0.0
2018-Feb-18 21:26N 33°43' W 118°17'0 0.0
2018-Feb-18 20:26N 33°43' W 118°17'1 2.3
2018-Feb-18 20:00N 33°43' W 118°16'4 6.9
2018-Feb-18 19:30N 33°40' W 118°14'4 8.0
2018-Feb-18 19:00N 33°43' W 118°17'1 0.9
2018-Feb-18 18:25N 33°43' W 118°17'0 0.0
2018-Feb-18 17:49N 33°43' W 118°17'0 0.0
2018-Feb-18 17:22N 33°43' W 118°17'0 0.0
2018-Feb-18 16:58N 33°43' W 118°17'0 0.0
2018-Feb-18 16:19N 33°43' W 118°17'0 0.0
2018-Feb-18 15:55N 33°43' W 118°17'0 0.0
2018-Feb-18 15:19N 33°43' W 118°17'0 0.0
2018-Feb-18 14:49N 33°43' W 118°17'2 0.2
2018-Feb-18 03:42N 33°43' W 118°14'2 0.5
2018-Feb-17 22:49N 33°43' W 118°17'0 0.0
2018-Feb-17 22:19N 33°43' W 118°17'0 0.0
2018-Feb-17 21:43N 33°43' W 118°17'0 0.0
2018-Feb-17 21:25N 33°43' W 118°17'0 0.0
2018-Feb-17 20:07N 33°43' W 118°17'0 0.0
2018-Feb-17 19:55N 33°43' W 118°17'0 0.0
2018-Feb-17 19:19N 33°43' W 118°17'0 0.0
2018-Feb-17 18:55N 33°43' W 118°17'0 0.0
2018-Feb-17 18:25N 33°43' W 118°17'0 0.0
2018-Feb-17 17:55N 33°43' W 118°17'0 0.0
2018-Feb-17 17:19N 33°43' W 118°17'0 0.0
2018-Feb-17 16:55N 33°43' W 118°17'0 0.0
2018-Feb-17 16:25N 33°43' W 118°17'0 0.0
2018-Feb-17 15:58N 33°43' W 118°17'0 0.0
2018-Feb-16 20:01N 33°43' W 118°17'0 0.0
2018-Feb-16 19:56N 33°43' W 118°17'0 1.1
2018-Feb-16 19:30N 33°44' W 118°16'2 3.2
2018-Feb-16 19:00N 33°42' W 118°16'0 0.2
2018-Feb-16 16:45N 33°42' W 118°16'1 3.3
2018-Feb-16 16:24N 33°43' W 118°17'0 0.6
2018-Feb-16 15:57N 33°43' W 118°17'0 0.0
2018-Feb-16 15:27N 33°43' W 118°17'0 0.0
2018-Feb-16 14:51N 33°43' W 118°17'0 0.0
2018-Feb-16 01:42N 33°43' W 118°17'0 0.0
2018-Feb-16 01:12N 33°43' W 118°17'0 0.0
2018-Feb-15 22:12N 33°43' W 118°17'0 0.0
2018-Feb-15 20:12N 33°43' W 118°17'0 0.0
2018-Feb-15 19:50N 33°43' W 118°17'1 3.2
2018-Feb-15 19:30N 33°44' W 118°16'0 0.9
2018-Feb-15 19:00N 33°44' W 118°16'1 1.9
2018-Feb-15 18:30N 33°43' W 118°16'0 0.0
2018-Feb-15 17:52N 33°43' W 118°16'0 0.9
2018-Feb-15 17:28N 33°43' W 118°16'1 1.5
2018-Feb-15 17:00N 33°44' W 118°16'1 1.0
2018-Feb-15 16:29N 33°44' W 118°16'1 1.5
2018-Feb-15 15:50N 33°43' W 118°17'0 0.0
2018-Feb-15 15:17N 33°43' W 118°17'0 0.0
2018-Feb-15 14:50N 33°43' W 118°17'1 0.1
2018-Feb-15 04:03N 33°44' W 118°16'1 5.1
2018-Feb-15 03:56N 33°44' W 118°15'0 0.1
2018-Feb-15 03:30N 33°44' W 118°15'2 0.8
2018-Feb-15 01:39N 33°43' W 118°17'0 0.0
2018-Feb-15 01:09N 33°43' W 118°17'0 0.0
2018-Feb-15 00:39N 33°43' W 118°17'0 0.0
2018-Feb-15 00:21N 33°43' W 118°17'0 0.0
2018-Feb-14 23:51N 33°43' W 118°17'0 0.0
2018-Feb-14 23:15N 33°43' W 118°17'0 0.0
2018-Feb-14 22:57N 33°43' W 118°17'0 0.0
2018-Feb-14 22:09N 33°43' W 118°17'0 0.0
2018-Feb-14 20:03N 33°43' W 118°17'0 0.0
2018-Feb-14 19:57N 33°43' W 118°17'0 0.0
2018-Feb-14 19:15N 33°43' W 118°17'0 0.0
2018-Feb-14 18:57N 33°43' W 118°17'0 0.0
2018-Feb-14 18:27N 33°43' W 118°17'0 0.0
2018-Feb-14 17:51N 33°43' W 118°17'0 0.0
2018-Feb-14 17:27N 33°43' W 118°17'0 0.0
2018-Feb-14 16:57N 33°43' W 118°17'0 0.0
2018-Feb-14 16:03N 33°43' W 118°17'0 0.0
2018-Feb-14 15:57N 33°43' W 118°17'0 0.0
2018-Feb-14 15:27N 33°43' W 118°17'0 0.0
2018-Feb-14 14:57N 33°43' W 118°17'0 0.0
2018-Feb-14 01:45N 33°43' W 118°17'0 1.7
2018-Feb-14 01:29N 33°43' W 118°17'0 0.0
2018-Feb-14 01:00N 33°43' W 118°17'0 0.0
2018-Feb-14 00:28N 33°43' W 118°17'0 0.0
2018-Feb-13 23:55N 33°43' W 118°17'0 0.0
2018-Feb-13 23:14N 33°43' W 118°17'1 3.2
2018-Feb-13 23:00N 33°44' W 118°16'2 5.0
2018-Feb-13 22:30N 33°46' W 118°15'1 2.7
2018-Feb-13 22:00N 33°45' W 118°16'2 0.8
2018-Feb-13 19:42N 33°43' W 118°17'0 0.0
2018-Feb-13 19:30N 33°43' W 118°17'0 0.0
2018-Feb-13 17:42N 33°43' W 118°17'0 0.0
2018-Feb-13 17:24N 33°43' W 118°17'0 0.0
2018-Feb-13 16:32N 33°43' W 118°17'0 0.0
2018-Feb-13 16:30N 33°43' W 118°17'0 0.2
2018-Feb-13 15:44N 33°43' W 118°17'0 1.2
2018-Feb-13 15:22N 33°43' W 118°17'0 1.0
2018-Feb-13 14:58N 33°43' W 118°17'0 0.0
2018-Feb-13 01:28N 33°43' W 118°17'1 1.4
2018-Feb-13 01:00N 33°43' W 118°16'1 1.3
2018-Feb-13 00:30N 33°44' W 118°16'0 0.1
2018-Feb-12 18:07N 33°43' W 118°17'0 0.0
2018-Feb-12 17:19N 33°43' W 118°17'0 0.0
2018-Feb-12 16:49N 33°43' W 118°17'0 0.0
2018-Feb-12 16:28N 33°43' W 118°17'0 0.0
2018-Feb-12 15:07N 33°43' W 118°17'0 0.0
2018-Feb-12 14:55N 33°43' W 118°17'0 0.0
2018-Feb-12 00:58N 33°43' W 118°17'0 1.0
2018-Feb-12 00:30N 33°43' W 118°16'0 0.8
2018-Feb-11 23:59N 33°43' W 118°17'0 0.0
2018-Feb-11 23:29N 33°43' W 118°17'1 1.6
2018-Feb-11 22:57N 33°43' W 118°16'1 0.2
2018-Feb-11 17:20N 33°42' W 118°17'1 4.0
2018-Feb-11 17:01N 33°43' W 118°15'1 2.1
2018-Feb-11 16:22N 33°43' W 118°17'0 0.0
2018-Feb-11 15:58N 33°43' W 118°17'0 0.0
2018-Feb-11 15:28N 33°43' W 118°17'1 0.1
2018-Feb-10 23:28N 33°42' W 118°17'2 4.0
2018-Feb-10 23:00N 33°44' W 118°16'2 4.6
2018-Feb-10 22:29N 33°46' W 118°15'0 0.2
2018-Feb-10 22:00N 33°46' W 118°15'2 3.0
2018-Feb-10 21:30N 33°45' W 118°16'1 1.1
2018-Feb-10 20:10N 33°43' W 118°17'0 0.0
2018-Feb-10 19:39N 33°43' W 118°17'1 4.8
2018-Feb-10 19:31N 33°43' W 118°16'1 2.2
2018-Feb-10 19:00N 33°44' W 118°15'0 0.1
2018-Feb-10 18:30N 33°44' W 118°15'1 2.1
2018-Feb-10 18:00N 33°43' W 118°16'1 1.2
2018-Feb-10 17:20N 33°43' W 118°17'0 0.5
2018-Feb-10 17:00N 33°43' W 118°17'3 5.1
2018-Feb-10 16:30N 33°46' W 118°16'0 0.7
2018-Feb-10 16:00N 33°45' W 118°16'1 2.8
2018-Feb-10 15:30N 33°44' W 118°17'1 0.0
2018-Feb-10 01:38N 33°43' W 118°17'0 0.0
2018-Feb-10 00:32N 33°43' W 118°17'0 0.0
2018-Feb-10 00:20N 33°43' W 118°17'0 0.0
2018-Feb-09 23:50N 33°43' W 118°17'0 0.0
2018-Feb-09 23:26N 33°43' W 118°17'0 0.0
2018-Feb-09 22:56N 33°43' W 118°17'0 0.0
2018-Feb-09 22:44N 33°43' W 118°17'  

Dump ship's entire track history